Time;durP1;ratioP1;P1;durP2;ratioP2;P2;SDS_P1;SDS_P2;PMS_P1;PMS_P2;Temp;Humidity;BMP_temperature;BMP_pressure;BME280_temperature;BME280_humidity;BME280_pressure;Samples;Min_cycle;Max_cycle;Signal;HPM_P1;HPM_P2
2021/05/25 00:00:15;;;;;;;10.85;4.90;;;14.80;76.50;;;;;;5060839;28;20050;-73
2021/05/25 00:02:42;;;;;;;6.90;4.25;;;14.70;76.70;;;;;;5053736;28;20029;-72
2021/05/25 00:05:12;;;;;;;9.13;5.03;;;14.80;76.70;;;;;;5048621;28;20091;-72
2021/05/25 00:07:37;;;;;;;8.02;5.05;;;14.80;76.80;;;;;;5064660;28;20123;-72
2021/05/25 00:10:05;;;;;;;10.00;6.60;;;14.70;76.70;;;;;;5048356;28;20423;-72
2021/05/25 00:12:31;;;;;;;8.23;5.00;;;14.70;76.70;;;;;;5054169;28;20541;-72
2021/05/25 00:14:57;;;;;;;8.85;5.43;;;14.70;76.70;;;;;;5049112;28;20034;-73
2021/05/25 00:17:23;;;;;;;9.68;5.95;;;14.70;76.60;;;;;;5055202;28;20032;-73
2021/05/25 00:19:49;;;;;;;8.90;6.20;;;14.80;76.70;;;;;;5052636;28;20332;-71
2021/05/25 00:22:14;;;;;;;11.73;6.47;;;14.70;76.50;;;;;;5063989;28;20060;-72
2021/05/25 00:24:40;;;;;;;8.77;5.72;;;14.70;76.40;;;;;;5066500;28;20495;-73
2021/05/25 00:27:07;;;;;;;10.85;6.53;;;14.60;76.50;;;;;;5049439;28;20025;-74
2021/05/25 00:29:32;;;;;;;9.63;5.90;;;14.60;76.70;;;;;;5061447;28;20086;-73
2021/05/25 00:31:58;;;;;;;9.70;5.80;;;14.60;76.80;;;;;;5057418;28;20112;-73
2021/05/25 00:34:24;;;;;;;8.93;6.18;;;14.60;76.80;;;;;;5074839;28;20021;-73
2021/05/25 00:36:49;;;;;;;9.02;6.85;;;14.60;76.80;;;;;;5059432;28;20039;-73
2021/05/25 00:39:16;;;;;;;9.23;6.30;;;14.60;76.70;;;;;;5052649;28;20057;-73
2021/05/25 00:41:42;;;;;;;10.00;6.28;;;14.60;76.70;;;;;;5055077;28;20033;-73
2021/05/25 00:44:09;;;;;;;9.98;5.95;;;14.60;76.70;;;;;;5048194;28;20114;-73
2021/05/25 00:46:35;;;;;;;9.23;6.35;;;14.60;76.70;;;;;;5061792;28;20062;-73
2021/05/25 00:49:01;;;;;;;10.13;6.07;;;14.60;76.70;;;;;;5061667;28;20476;-73
2021/05/25 00:51:27;;;;;;;15.18;7.05;;;14.60;76.60;;;;;;5048904;28;20039;-73
2021/05/25 00:53:53;;;;;;;10.65;6.65;;;14.60;76.60;;;;;;5049261;28;20036;-73
2021/05/25 00:56:18;;;;;;;11.05;6.22;;;14.60;76.60;;;;;;5049639;28;20403;-72
2021/05/25 00:58:45;;;;;;;8.75;5.65;;;14.60;76.60;;;;;;5055030;28;20045;-73
2021/05/25 01:01:11;;;;;;;9.40;6.47;;;14.60;76.70;;;;;;5049621;28;20032;-73
2021/05/25 01:03:37;;;;;;;11.27;7.47;;;14.60;76.70;;;;;;5047500;28;20471;-73
2021/05/25 01:06:03;;;;;;;8.60;5.85;;;14.60;76.50;;;;;;5049118;28;20051;-73
2021/05/25 01:08:28;;;;;;;12.70;6.88;;;14.60;76.40;;;;;;5048405;28;20393;-72
2021/05/25 01:11:02;;;;;;;9.23;5.78;;;14.60;76.40;;;;;;5065596;28;20082;-73
2021/05/25 01:13:29;;;;;;;9.32;6.38;;;14.50;76.40;;;;;;5058290;28;20120;-73
2021/05/25 01:15:57;;;;;;;8.93;6.07;;;14.60;76.20;;;;;;5058823;28;20032;-73
2021/05/25 01:18:23;;;;;;;7.93;5.00;;;14.50;76.20;;;;;;5064306;28;20184;-73
2021/05/25 01:20:50;;;;;;;10.07;6.43;;;14.50;76.20;;;;;;5057562;28;20021;-72
2021/05/25 01:23:17;;;;;;;9.55;5.53;;;14.50;76.30;;;;;;5063499;28;20111;-72
2021/05/25 01:25:47;;;;;;;8.15;5.05;;;14.50;76.10;;;;;;5051324;28;20029;-73
2021/05/25 01:28:15;;;;;;;7.18;4.20;;;14.50;76.10;;;;;;5071235;28;20036;-73
2021/05/25 01:30:44;;;;;;;8.48;5.25;;;14.50;76.00;;;;;;5062114;28;20028;-72
2021/05/25 01:33:15;;;;;;;8.73;5.53;;;14.40;75.60;;;;;;5052347;28;20074;-73
2021/05/25 01:35:42;;;;;;;7.45;4.75;;;14.40;75.70;;;;;;5058507;28;20051;-73
2021/05/25 01:38:09;;;;;;;8.80;4.30;;;14.40;75.50;;;;;;5060503;28;20166;-73
2021/05/25 01:40:36;;;;;;;10.13;4.70;;;14.30;75.70;;;;;;5053539;28;20534;-73
2021/05/25 01:43:03;;;;;;;7.68;4.60;;;14.30;75.90;;;;;;5052581;28;20068;-73
2021/05/25 01:45:30;;;;;;;7.60;4.20;;;14.30;75.80;;;;;;5064245;28;20033;-72
2021/05/25 01:47:58;;;;;;;8.38;4.15;;;14.20;75.50;;;;;;5066455;28;20111;-73
2021/05/25 01:50:25;;;;;;;7.82;3.97;;;14.20;75.70;;;;;;5056141;28;20175;-73
2021/05/25 01:52:53;;;;;;;8.15;4.10;;;14.20;75.60;;;;;;5069334;28;20415;-73
2021/05/25 01:55:29;;;;;;;6.60;3.22;;;14.10;75.30;;;;;;5066562;28;20056;-73
2021/05/25 01:57:56;;;;;;;7.68;3.92;;;14.00;75.30;;;;;;5063076;28;20113;-73
2021/05/25 02:00:23;;;;;;;5.88;3.53;;;14.10;75.50;;;;;;5052629;28;20502;-73
2021/05/25 02:02:49;;;;;;;7.85;3.42;;;14.10;75.40;;;;;;5053474;28;20040;-72
2021/05/25 02:05:15;;;;;;;5.40;3.10;;;14.10;75.30;;;;;;5057259;28;20037;-72
2021/05/25 02:07:46;;;;;;;6.63;3.10;;;14.10;75.20;;;;;;5061942;28;20036;-72
2021/05/25 02:10:29;;;;;;;6.60;3.50;;;14.00;75.20;;;;;;5058615;28;20118;-73
2021/05/25 02:13:00;;;;;;;5.22;2.80;;;14.00;75.20;;;;;;5058371;28;20052;-73
2021/05/25 02:15:26;;;;;;;5.30;2.90;;;14.00;75.10;;;;;;5062851;28;20037;-73
2021/05/25 02:17:51;;;;;;;7.22;3.25;;;14.00;75.10;;;;;;5066101;28;20423;-73
2021/05/25 02:20:17;;;;;;;5.32;2.58;;;14.00;75.00;;;;;;5062554;28;20040;-73
2021/05/25 02:22:43;;;;;;;5.22;2.42;;;14.00;74.90;;;;;;5051050;28;20048;-73
2021/05/25 02:25:09;;;;;;;6.93;3.13;;;13.90;74.90;;;;;;5062546;28;20029;-73
2021/05/25 02:27:35;;;;;;;6.50;3.10;;;14.00;74.50;;;;;;5066449;28;20078;-73
2021/05/25 02:30:01;;;;;;;5.88;2.80;;;13.90;74.40;;;;;;5058309;28;20068;-73
2021/05/25 02:32:27;;;;;;;5.88;2.72;;;13.90;74.40;;;;;;5063540;28;20473;-73
2021/05/25 02:34:53;;;;;;;5.15;2.22;;;13.90;74.40;;;;;;5054049;28;20036;-74
2021/05/25 02:37:19;;;;;;;7.57;2.33;;;13.80;74.30;;;;;;5051699;28;20029;-73
2021/05/25 02:39:45;;;;;;;5.03;2.33;;;13.80;74.30;;;;;;5063851;28;20363;-73
2021/05/25 02:42:10;;;;;;;13.57;3.10;;;13.80;74.20;;;;;;5057048;28;20045;-73
2021/05/25 02:44:36;;;;;;;6.57;2.97;;;13.80;74.40;;;;;;5054239;28;20036;-72
2021/05/25 02:47:01;;;;;;;7.60;3.58;;;13.80;74.60;;;;;;5033138;28;20368;-72
2021/05/25 02:49:27;;;;;;;5.25;2.60;;;13.70;74.40;;;;;;5064708;28;20086;-72
2021/05/25 02:51:53;;;;;;;6.32;2.47;;;13.70;74.50;;;;;;5066396;28;20391;-73
2021/05/25 02:54:18;;;;;;;6.50;2.97;;;13.70;74.50;;;;;;5062807;28;20041;-72
2021/05/25 02:56:44;;;;;;;7.95;2.88;;;13.70;74.50;;;;;;5055354;28;20083;-73
2021/05/25 02:59:09;;;;;;;6.25;3.20;;;13.60;74.30;;;;;;5058720;28;20444;-73
2021/05/25 03:01:35;;;;;;;7.45;3.20;;;13.60;74.20;;;;;;5050354;28;20506;-72
2021/05/25 03:04:01;;;;;;;5.47;2.22;;;13.50;74.20;;;;;;5052605;28;20040;-73
2021/05/25 03:06:27;;;;;;;10.80;3.45;;;13.50;74.30;;;;;;5048426;28;20028;-73
2021/05/25 03:08:53;;;;;;;6.15;2.38;;;13.40;74.20;;;;;;5055135;28;20033;-73
2021/05/25 03:11:18;;;;;;;5.13;2.30;;;13.40;74.50;;;;;;5062490;28;20040;-72
2021/05/25 03:13:44;;;;;;;6.30;3.05;;;13.40;74.60;;;;;;5052450;28;20120;-73
2021/05/25 03:16:10;;;;;;;7.60;3.00;;;13.40;74.40;;;;;;5051102;28;20057;-73
2021/05/25 03:18:35;;;;;;;5.28;2.42;;;13.30;74.40;;;;;;5048972;28;20549;-73
2021/05/25 03:21:01;;;;;;;6.30;3.10;;;13.30;74.50;;;;;;5067127;28;20097;-73
2021/05/25 03:23:27;;;;;;;5.47;2.88;;;13.30;74.50;;;;;;5051348;28;20677;-73
2021/05/25 03:25:54;;;;;;;5.63;2.70;;;13.30;74.50;;;;;;5054773;28;20050;-73
2021/05/25 03:28:20;;;;;;;4.95;2.22;;;13.30;74.70;;;;;;5050461;28;20033;-72
2021/05/25 03:30:46;;;;;;;5.28;2.55;;;13.30;74.50;;;;;;5049305;28;20394;-72
2021/05/25 03:33:12;;;;;;;6.03;2.55;;;13.20;74.50;;;;;;5067245;28;20482;-72
2021/05/25 03:35:37;;;;;;;8.85;3.13;;;13.20;74.70;;;;;;5051135;28;20048;-73
2021/05/25 03:38:04;;;;;;;6.57;2.75;;;13.20;74.70;;;;;;5062956;28;20025;-73
2021/05/25 03:40:30;;;;;;;7.00;2.78;;;13.20;74.70;;;;;;5053657;28;20040;-72
2021/05/25 03:42:56;;;;;;;5.93;2.95;;;13.20;74.60;;;;;;5057353;28;20040;-73
2021/05/25 03:45:23;;;;;;;5.78;2.70;;;13.20;74.60;;;;;;5048221;28;20487;-74
2021/05/25 03:47:49;;;;;;;7.22;2.70;;;13.20;74.80;;;;;;5063702;28;20033;-73
2021/05/25 03:50:16;;;;;;;6.63;3.08;;;13.20;74.80;;;;;;5059222;28;20517;-73
2021/05/25 03:52:45;;;;;;;5.65;2.78;;;13.20;74.70;;;;;;5050441;28;20423;-73
2021/05/25 03:55:29;;;;;;;7.80;3.22;;;13.20;74.70;;;;;;5056876;28;20178;-73
2021/05/25 04:00:40;;;;;;;6.15;2.85;;;13.30;74.60;;;;;;5053896;28;20128;-72
2021/05/25 04:03:05;;;;;;;5.57;2.83;;;13.30;74.60;;;;;;5058216;28;20474;-73
2021/05/25 04:05:31;;;;;;;6.05;2.90;;;13.30;74.70;;;;;;5068009;28;20035;-73
2021/05/25 04:07:57;;;;;;;6.20;2.53;;;13.30;74.80;;;;;;5062465;28;20060;-73
2021/05/25 04:10:23;;;;;;;6.47;2.85;;;13.30;74.90;;;;;;5049162;28;20467;-73
2021/05/25 04:12:48;;;;;;;9.18;3.78;;;13.30;74.90;;;;;;5050235;28;20033;-73
2021/05/25 04:15:14;;;;;;;6.80;2.85;;;13.40;74.70;;;;;;5058695;28;20044;-72
2021/05/25 04:17:41;;;;;;;7.00;3.33;;;13.40;74.60;;;;;;5044007;28;20037;-73
2021/05/25 04:20:11;;;;;;;7.28;3.17;;;13.30;74.70;;;;;;5056913;28;20119;-73
2021/05/25 04:22:37;;;;;;;7.28;3.28;;;13.30;74.70;;;;;;5056325;28;20435;-73
2021/05/25 04:25:05;;;;;;;6.28;3.58;;;13.30;74.80;;;;;;5050026;28;20033;-72
2021/05/25 04:27:30;;;;;;;7.47;3.40;;;13.40;74.90;;;;;;5052629;28;20031;-73
2021/05/25 04:29:56;;;;;;;8.38;4.10;;;13.40;74.90;;;;;;5059957;28;20041;-72
2021/05/25 04:32:22;;;;;;;7.57;3.55;;;13.40;74.90;;;;;;5057393;28;20039;-73
2021/05/25 04:34:47;;;;;;;7.93;3.70;;;13.50;74.90;;;;;;5068198;28;20025;-72
2021/05/25 04:37:13;;;;;;;9.10;4.70;;;13.50;74.60;;;;;;5056044;28;20048;-72
2021/05/25 04:39:39;;;;;;;7.63;3.47;;;13.40;74.60;;;;;;5058014;28;20312;-72
2021/05/25 04:42:04;;;;;;;7.88;3.97;;;13.40;74.70;;;;;;5063430;28;20046;-72
2021/05/25 04:44:31;;;;;;;6.85;3.65;;;13.40;74.90;;;;;;5048109;28;20033;-73
2021/05/25 04:46:57;;;;;;;11.55;4.53;;;13.40;74.90;;;;;;5051429;28;20517;-72
2021/05/25 04:49:22;;;;;;;6.53;4.07;;;13.50;75.00;;;;;;5054501;28;20033;-73
2021/05/25 04:51:48;;;;;;;7.72;4.78;;;13.50;74.60;;;;;;5048364;28;20051;-72
2021/05/25 04:54:14;;;;;;;8.43;4.80;;;13.50;74.60;;;;;;5050334;28;20068;-72
2021/05/25 04:56:40;;;;;;;9.13;4.13;;;13.50;74.60;;;;;;5051515;28;20376;-73
2021/05/25 04:59:06;;;;;;;7.70;4.03;;;13.50;74.60;;;;;;5052713;28;20029;-73
2021/05/25 05:01:32;;;;;;;8.65;4.82;;;13.60;74.70;;;;;;5060539;28;20110;-74
2021/05/25 05:03:58;;;;;;;8.27;4.65;;;13.60;74.50;;;;;;5053933;28;20119;-74
2021/05/25 05:06:24;;;;;;;12.20;5.00;;;13.70;74.20;;;;;;5063489;28;20165;-73
2021/05/25 05:08:49;;;;;;;7.95;4.40;;;13.70;74.20;;;;;;5052568;28;20029;-74
2021/05/25 05:11:15;;;;;;;10.02;4.72;;;13.70;74.20;;;;;;5067278;28;20040;-73
2021/05/25 05:13:41;;;;;;;9.98;5.10;;;13.70;74.20;;;;;;5059425;28;20133;-73
2021/05/25 05:16:06;;;;;;;8.43;4.90;;;13.70;74.20;;;;;;5059320;28;20043;-72
2021/05/25 05:18:32;;;;;;;9.00;5.03;;;13.70;74.20;;;;;;5073605;28;20470;-73
2021/05/25 05:20:58;;;;;;;9.55;4.40;;;13.70;74.20;;;;;;5062648;28;20154;-73
2021/05/25 05:23:23;;;;;;;8.48;5.07;;;13.70;74.40;;;;;;5060948;28;20044;-73
2021/05/25 05:25:49;;;;;;;9.15;4.97;;;13.70;74.50;;;;;;5041304;28;20079;-72
2021/05/25 05:28:15;;;;;;;7.90;5.15;;;13.70;74.50;;;;;;5066572;28;20048;-73
2021/05/25 05:30:41;;;;;;;8.65;4.75;;;13.70;74.40;;;;;;5063518;28;20059;-72
2021/05/25 05:33:08;;;;;;;9.73;5.05;;;13.80;74.40;;;;;;5060400;28;20039;-73
2021/05/25 05:35:34;;;;;;;7.75;4.72;;;13.90;74.20;;;;;;5061932;28;20028;-73
2021/05/25 05:38:00;;;;;;;7.53;4.63;;;14.00;74.00;;;;;;5055576;28;20082;-73
2021/05/25 05:40:26;;;;;;;9.60;5.22;;;14.00;73.90;;;;;;5061727;28;20036;-73
2021/05/25 05:42:52;;;;;;;7.70;5.15;;;14.00;74.00;;;;;;5060574;28;20029;-74
2021/05/25 05:45:20;;;;;;;8.10;4.65;;;14.10;73.80;;;;;;5046051;28;20466;-73
2021/05/25 05:47:46;;;;;;;6.70;4.03;;;14.10;73.60;;;;;;5066539;28;20379;-74
2021/05/25 05:50:12;;;;;;;7.68;5.05;;;14.20;73.30;;;;;;5064488;28;20041;-75
2021/05/25 05:52:39;;;;;;;6.72;4.35;;;14.20;74.00;;;;;;5058787;28;20490;-74
2021/05/25 05:55:06;;;;;;;7.13;4.60;;;14.30;73.10;;;;;;5068411;28;20127;-74
2021/05/25 05:57:32;;;;;;;6.97;4.60;;;14.40;73.10;;;;;;5071693;28;20102;-73
2021/05/25 05:59:58;;;;;;;8.25;5.30;;;14.40;73.00;;;;;;5053258;28;20536;-73
2021/05/25 06:02:24;;;;;;;7.07;4.95;;;14.50;72.90;;;;;;5054637;28;20086;-73
2021/05/25 06:04:49;;;;;;;10.88;6.40;;;14.50;72.70;;;;;;5065332;28;20439;-73
2021/05/25 06:07:16;;;;;;;9.30;6.25;;;14.50;72.40;;;;;;5065963;28;20136;-73
2021/05/25 06:09:43;;;;;;;8.88;6.18;;;14.50;72.30;;;;;;5060859;28;20033;-73
2021/05/25 06:12:09;;;;;;;11.93;7.22;;;14.50;72.10;;;;;;5051172;28;20071;-74
2021/05/25 06:14:34;;;;;;;9.77;6.10;;;14.50;71.80;;;;;;5052325;28;20436;-73
2021/05/25 06:17:01;;;;;;;10.55;6.72;;;14.50;71.90;;;;;;5060301;28;20047;-73
2021/05/25 06:19:27;;;;;;;9.80;6.25;;;14.50;71.80;;;;;;5068142;28;20467;-72
2021/05/25 06:21:52;;;;;;;10.48;6.82;;;14.50;71.60;;;;;;5067692;28;20049;-74
2021/05/25 06:24:18;;;;;;;9.93;6.50;;;14.40;71.60;;;;;;5063177;28;20044;-75
2021/05/25 06:26:44;;;;;;;10.30;6.93;;;14.40;71.50;;;;;;5061815;28;20033;-73
2021/05/25 06:29:10;;;;;;;9.90;7.35;;;14.40;71.60;;;;;;5059374;28;20455;-72
2021/05/25 06:31:36;;;;;;;11.15;6.75;;;14.50;71.70;;;;;;5066908;28;20040;-73
2021/05/25 06:34:02;;;;;;;8.85;6.97;;;14.30;71.70;;;;;;5067653;28;20524;-74
2021/05/25 06:36:28;;;;;;;9.95;6.30;;;14.30;72.00;;;;;;5055649;28;20040;-74
2021/05/25 06:38:54;;;;;;;10.27;7.60;;;14.40;72.40;;;;;;5064412;28;20025;-77
2021/05/25 06:41:20;;;;;;;10.48;7.00;;;14.50;72.00;;;;;;5059221;28;20033;-76
2021/05/25 06:43:45;;;;;;;9.63;6.70;;;14.60;71.30;;;;;;5059605;28;20040;-76
2021/05/25 06:46:11;;;;;;;8.77;7.30;;;14.50;71.00;;;;;;5055569;28;20147;-74
2021/05/25 06:48:36;;;;;;;10.40;7.63;;;14.50;71.20;;;;;;5043204;28;20033;-74
2021/05/25 06:51:06;;;;;;;9.15;6.65;;;14.60;71.50;;;;;;5056903;28;20048;-76
2021/05/25 06:53:33;;;;;;;11.20;6.53;;;14.70;71.40;;;;;;5058648;28;20040;-75
2021/05/25 06:55:58;;;;;;;8.40;6.50;;;14.80;71.30;;;;;;5058671;28;20040;-75
2021/05/25 06:58:24;;;;;;;9.07;7.00;;;14.80;71.20;;;;;;5059917;28;20029;-73
2021/05/25 07:00:49;;;;;;;12.32;7.78;;;14.90;71.80;;;;;;5060231;28;20032;-71
2021/05/25 07:03:15;;;;;;;9.00;7.30;;;14.90;71.00;;;;;;5050630;28;20441;-71
2021/05/25 07:05:41;;;;;;;9.15;7.10;;;15.00;70.80;;;;;;5059309;28;20035;-73
2021/05/25 07:08:07;;;;;;;11.45;7.90;;;14.90;70.80;;;;;;5053468;28;20028;-71
2021/05/25 07:10:32;;;;;;;9.90;8.40;;;14.80;70.80;;;;;;5054998;28;20071;-72
2021/05/25 07:12:58;;;;;;;10.00;8.40;;;14.80;70.80;;;;;;5047694;28;20037;-71
2021/05/25 07:15:23;;;;;;;10.48;7.80;;;14.90;70.80;;;;;;5037166;28;20144;-71
2021/05/25 07:17:56;;;;;;;10.88;7.60;;;15.00;70.70;;;;;;5061482;28;20025;-71
2021/05/25 07:20:23;;;;;;;9.68;7.63;;;15.10;70.60;;;;;;5051996;28;20063;-72
2021/05/25 07:22:51;;;;;;;10.18;8.80;;;15.30;70.60;;;;;;5052609;28;20071;-72
2021/05/25 07:25:17;;;;;;;11.35;8.88;;;15.50;70.30;;;;;;5058883;28;20032;-71
2021/05/25 07:27:43;;;;;;;11.15;8.73;;;15.60;69.20;;;;;;5057592;28;20052;-71
2021/05/25 07:30:10;;;;;;;10.05;8.20;;;15.80;69.30;;;;;;5065032;28;20064;-71
2021/05/25 07:32:36;;;;;;;10.68;8.05;;;16.00;68.90;;;;;;5060773;28;20119;-71
2021/05/25 07:35:01;;;;;;;11.02;8.35;;;16.00;68.40;;;;;;5051743;28;20140;-71
2021/05/25 07:37:28;;;;;;;10.35;8.10;;;16.00;68.30;;;;;;5050777;28;20098;-71
2021/05/25 07:39:53;;;;;;;12.38;8.93;;;15.90;68.30;;;;;;5067267;28;20024;-70
2021/05/25 07:42:19;;;;;;;10.63;7.60;;;15.90;68.10;;;;;;5061878;28;20110;-71
2021/05/25 07:44:44;;;;;;;9.70;8.55;;;15.80;68.40;;;;;;5057122;28;20077;-70
2021/05/25 07:47:10;;;;;;;14.57;8.98;;;15.80;68.80;;;;;;5057921;28;20610;-70
2021/05/25 07:49:36;;;;;;;11.10;7.85;;;15.90;68.90;;;;;;5071120;28;20067;-71
2021/05/25 07:52:02;;;;;;;11.85;9.52;;;15.90;69.00;;;;;;5064714;28;20048;-71
2021/05/25 07:54:28;;;;;;;11.35;8.38;;;15.90;69.20;;;;;;5067638;28;20440;-71
2021/05/25 07:56:54;;;;;;;10.95;7.95;;;16.00;68.90;;;;;;5069311;28;20025;-70
2021/05/25 07:59:19;;;;;;;9.70;7.47;;;16.00;68.50;;;;;;5062884;28;20214;-72
2021/05/25 08:01:45;;;;;;;9.65;7.43;;;16.00;68.80;;;;;;5057405;28;20036;-71
2021/05/25 08:04:10;;;;;;;9.00;7.65;;;16.10;69.00;;;;;;5060114;28;20037;-70
2021/05/25 08:06:36;;;;;;;9.18;7.20;;;16.20;68.70;;;;;;5063990;28;20450;-70
2021/05/25 08:09:04;;;;;;;10.25;7.97;;;16.30;68.50;;;;;;5050093;28;20493;-70
2021/05/25 08:11:30;;;;;;;10.32;7.72;;;16.60;68.40;;;;;;5063020;28;20387;-71
2021/05/25 08:13:56;;;;;;;11.40;7.82;;;16.90;67.60;;;;;;5054215;28;20060;-71
2021/05/25 08:16:27;;;;;;;8.88;6.75;;;17.20;67.20;;;;;;5067677;28;20451;-69
2021/05/25 08:19:10;;;;;;;7.47;5.82;;;17.60;66.30;;;;;;5061825;28;20043;-70
2021/05/25 08:21:38;;;;;;;8.60;6.10;;;18.10;65.10;;;;;;5067200;28;20028;-70
2021/05/25 08:24:06;;;;;;;8.10;5.93;;;18.30;63.80;;;;;;5060975;28;20033;-70
2021/05/25 08:26:32;;;;;;;8.73;5.82;;;18.40;63.60;;;;;;5059500;28;20048;-70
2021/05/25 08:28:58;;;;;;;8.68;6.05;;;18.40;63.70;;;;;;5059855;28;20033;-70
2021/05/25 08:31:23;;;;;;;8.07;5.28;;;18.50;63.70;;;;;;5064592;28;20363;-70
2021/05/25 08:33:49;;;;;;;7.55;5.45;;;18.80;63.00;;;;;;5066117;28;20037;-70
2021/05/25 08:36:17;;;;;;;10.13;5.45;;;19.20;62.50;;;;;;5063065;28;20345;-71
2021/05/25 08:38:43;;;;;;;8.40;5.18;;;19.50;61.90;;;;;;5057729;28;20029;-70
2021/05/25 08:41:10;;;;;;;7.93;5.60;;;19.70;61.70;;;;;;5060326;28;20041;-70
2021/05/25 08:43:36;;;;;;;6.15;4.40;;;20.00;59.70;;;;;;5060126;28;20024;-70
2021/05/25 08:46:02;;;;;;;9.40;5.65;;;20.30;59.00;;;;;;5056873;28;20108;-70
2021/05/25 08:48:28;;;;;;;10.15;5.03;;;20.60;58.90;;;;;;5071083;28;20479;-70
2021/05/25 08:50:57;;;;;;;6.95;4.22;;;20.70;57.50;;;;;;5058357;28;20048;-70
2021/05/25 08:53:23;;;;;;;5.70;3.08;;;20.40;57.10;;;;;;5069117;28;20036;-70
2021/05/25 08:55:50;;;;;;;5.78;2.83;;;20.00;57.50;;;;;;5057372;28;20033;-70
2021/05/25 08:58:18;;;;;;;5.60;2.40;;;19.60;58.50;;;;;;5067073;28;20043;-70
2021/05/25 09:00:44;;;;;;;6.38;2.95;;;19.40;59.30;;;;;;5064268;28;20029;-69
2021/05/25 09:03:13;;;;;;;6.43;2.90;;;19.70;59.50;;;;;;5067329;28;20431;-70
2021/05/25 09:06:06;;;;;;;6.68;2.60;;;20.10;59.20;;;;;;5065124;28;20083;-70
2021/05/25 09:08:32;;;;;;;6.93;3.08;;;20.50;57.40;;;;;;5066480;28;20023;-73
2021/05/25 09:11:08;;;;;;;6.90;3.05;;;20.90;57.00;;;;;;5064585;28;20036;-72
2021/05/25 09:13:34;;;;;;;5.18;2.58;;;21.00;55.90;;;;;;5063916;28;20489;-73
2021/05/25 09:16:02;;;;;;;6.82;2.20;;;21.00;54.50;;;;;;5068858;28;20032;-73
2021/05/25 09:18:34;;;;;;;4.10;1.75;;;20.70;54.30;;;;;;5065538;28;20032;-70
2021/05/25 09:21:01;;;;;;;2.53;1.42;;;20.10;53.60;;;;;;5062460;28;20142;-70
2021/05/25 09:23:33;;;;;;;2.17;1.00;;;19.50;53.20;;;;;;5053647;28;20146;-70
2021/05/25 09:26:05;;;;;;;2.58;1.70;;;18.90;54.60;;;;;;5063294;28;20060;-71
2021/05/25 09:28:32;;;;;;;4.50;1.60;;;18.50;56.30;;;;;;5063678;28;20029;-71
2021/05/25 09:30:58;;;;;;;3.17;1.60;;;18.10;57.90;;;;;;5057362;28;20043;-70
2021/05/25 09:33:24;;;;;;;3.42;1.73;;;17.80;59.90;;;;;;5069688;28;20031;-70
2021/05/25 09:35:52;;;;;;;3.63;1.65;;;17.50;61.10;;;;;;5060262;28;20029;-72
2021/05/25 09:38:28;;;;;;;4.53;2.13;;;17.30;62.40;;;;;;5062420;28;20040;-71
2021/05/25 09:41:01;;;;;;;5.13;2.10;;;17.10;63.80;;;;;;5063755;28;20119;-70
2021/05/25 09:43:29;;;;;;;;;;;17.00;64.20;;;;;;5055693;28;20068;-72
2021/05/25 09:46:12;;;;;;;8.27;2.25;;;17.00;64.90;;;;;;5050930;28;19916;-70
2021/05/25 09:48:41;;;;;;;4.95;2.17;;;16.70;66.00;;;;;;5052881;28;20021;-71
2021/05/25 09:51:22;;;;;;;4.60;2.08;;;16.50;66.90;;;;;;5058031;28;20028;-70
2021/05/25 09:53:49;;;;;;;5.10;1.90;;;16.40;68.00;;;;;;5052861;28;20036;-71
2021/05/25 09:56:25;;;;;;;7.78;2.92;;;16.60;68.50;;;;;;5055575;28;20087;-71
2021/05/25 09:58:51;;;;;;;4.82;1.95;;;16.60;68.90;;;;;;5048906;28;20457;-71
2021/05/25 10:01:17;;;;;;;6.25;2.03;;;16.80;68.80;;;;;;5063315;28;20029;-71
2021/05/25 10:03:51;;;;;;;5.32;2.00;;;17.00;68.90;;;;;;5051658;28;20335;-70
2021/05/25 10:06:17;;;;;;;5.95;2.17;;;17.20;68.80;;;;;;5057061;28;20064;-71
2021/05/25 10:08:44;;;;;;;5.18;2.10;;;17.40;68.40;;;;;;5051719;28;20361;-70
2021/05/25 10:11:11;;;;;;;5.78;2.70;;;17.50;68.10;;;;;;5051513;28;20440;-70
2021/05/25 10:13:37;;;;;;;6.88;2.92;;;17.60;67.90;;;;;;5053625;28;20045;-71
2021/05/25 10:16:05;;;;;;;8.68;3.28;;;17.70;67.70;;;;;;5059076;28;20437;-71
2021/05/25 10:21:25;;;;;;;8.23;3.00;;;17.70;68.00;;;;;;5060651;28;20036;-71
2021/05/25 10:23:53;;;;;;;8.35;3.40;;;17.80;68.40;;;;;;5065938;28;20495;-71
2021/05/25 10:26:21;;;;;;;7.47;2.95;;;18.20;68.40;;;;;;5062341;28;20016;-73
2021/05/25 10:28:48;;;;;;;6.72;3.10;;;18.40;67.70;;;;;;5061433;28;20406;-72
2021/05/25 10:31:27;;;;;;;7.07;3.58;;;18.50;66.90;;;;;;5055210;28;20386;-71
2021/05/25 10:34:11;;;;;;;6.47;3.45;;;18.20;67.40;;;;;;5051141;28;20028;-71
2021/05/25 10:36:47;;;;;;;6.97;4.45;;;18.20;67.50;;;;;;5055495;28;20086;-72
2021/05/25 10:39:28;;;;;;;7.82;3.45;;;18.00;66.40;;;;;;5054124;28;20190;-72
2021/05/25 10:42:13;;;;;;;5.85;2.95;;;17.70;66.20;;;;;;5061445;28;20117;-71
2021/05/25 10:45:10;;;;;;;7.05;2.40;;;17.40;65.80;;;;;;5059424;28;20021;-72
2021/05/25 10:47:55;;;;;;;4.90;2.33;;;17.10;65.70;;;;;;5054292;28;20489;-73
2021/05/25 10:53:19;;;;;;;7.80;3.05;;;16.80;65.90;;;;;;5069852;28;20035;-73
2021/05/25 10:55:44;;;;;;;8.48;3.58;;;16.60;66.60;;;;;;5070108;28;20036;-73
2021/05/25 10:58:30;;;;;;;11.07;3.42;;;16.70;66.90;;;;;;5062131;28;20047;-72
2021/05/25 11:00:58;;;;;;;7.43;3.15;;;16.60;67.60;;;;;;5053016;28;20029;-73
2021/05/25 11:03:24;;;;;;;9.63;3.78;;;16.60;67.80;;;;;;5053376;28;20045;-72
2021/05/25 11:06:05;;;;;;;7.50;3.92;;;16.70;68.40;;;;;;5050512;28;20102;-73
2021/05/25 11:08:32;;;;;;;7.85;3.67;;;16.90;68.60;;;;;;5058279;28;20082;-73
2021/05/25 11:11:08;;;;;;;6.20;2.88;;;17.30;68.00;;;;;;5062772;28;20043;-76
2021/05/25 11:13:40;;;;;;;7.97;3.00;;;17.70;67.70;;;;;;5080459;28;20035;-73
2021/05/25 11:16:29;;;;;;;5.78;2.70;;;18.20;67.50;;;;;;5064549;28;20042;-72
2021/05/25 11:24:40;;;;;;;7.75;2.58;;;19.10;61.60;;;;;;5061784;28;20058;-74
2021/05/25 11:27:40;;;;;;;5.53;1.92;;;19.30;60.40;;;;;;5054363;28;20024;-72
2021/05/25 11:30:14;;;;;;;5.35;2.20;;;19.60;58.90;;;;;;5056605;28;20116;-71
2021/05/25 11:32:47;;;;;;;7.38;2.20;;;19.80;57.70;;;;;;5064135;28;20029;-72
2021/05/25 11:35:15;;;;;;;7.25;2.15;;;19.80;56.30;;;;;;5065188;28;20455;-72
2021/05/25 11:37:43;;;;;;;5.97;2.13;;;19.80;55.60;;;;;;5068629;28;20399;-73
2021/05/25 11:40:12;;;;;;;5.55;1.80;;;19.90;56.10;;;;;;5069640;28;20378;-71
2021/05/25 11:42:39;;;;;;;4.68;1.65;;;20.00;55.20;;;;;;5061355;28;20505;-72
2021/05/25 11:45:08;;;;;;;5.43;1.50;;;20.10;53.20;;;;;;5060058;28;20147;-72
2021/05/25 11:47:34;;;;;;;6.57;2.38;;;20.10;54.10;;;;;;5067460;28;20020;-71
2021/05/25 11:50:00;;;;;;;4.70;1.83;;;20.10;52.90;;;;;;5067356;28;20427;-72
2021/05/25 11:52:31;;;;;;;4.75;2.05;;;19.90;53.00;;;;;;5063883;28;20036;-71
2021/05/25 11:55:07;;;;;;;5.88;2.08;;;19.60;53.90;;;;;;5066140;28;20016;-71
2021/05/25 11:57:43;;;;;;;4.28;1.80;;;19.50;54.20;;;;;;5065917;28;20087;-71
2021/05/25 12:00:21;;;;;;;4.00;1.65;;;19.30;54.20;;;;;;5062446;28;20016;-71
2021/05/25 12:02:48;;;;;;;3.95;1.50;;;19.10;53.90;;;;;;5063349;28;20013;-72
2021/05/25 12:05:19;;;;;;;3.88;1.67;;;19.00;53.80;;;;;;5067466;28;20123;-72
2021/05/25 12:07:51;;;;;;;4.72;1.45;;;18.90;54.50;;;;;;5064766;28;20501;-71
2021/05/25 12:10:20;;;;;;;4.07;1.83;;;19.00;54.80;;;;;;5064881;28;20033;-72
2021/05/25 12:12:46;;;;;;;5.40;1.90;;;19.30;54.10;;;;;;5045950;28;20102;-72
2021/05/25 12:15:24;;;;;;;8.23;2.72;;;19.60;52.20;;;;;;5066499;28;20489;-72
2021/05/25 12:17:55;;;;;;;4.05;1.55;;;19.80;52.40;;;;;;5066707;28;20474;-72
2021/05/25 12:20:23;;;;;;;5.53;1.60;;;20.10;52.10;;;;;;5068805;28;20393;-72
2021/05/25 12:22:53;;;;;;;4.80;1.50;;;20.30;50.50;;;;;;5061936;28;20057;-73
2021/05/25 12:25:23;;;;;;;5.55;1.42;;;20.40;49.60;;;;;;5064155;28;20024;-73
2021/05/25 12:27:51;;;;;;;3.00;1.20;;;20.40;48.90;;;;;;5067205;28;20032;-72
2021/05/25 12:30:20;;;;;;;5.55;1.48;;;20.30;48.20;;;;;;5063207;28;20021;-72
2021/05/25 12:32:46;;;;;;;4.15;1.27;;;20.20;47.90;;;;;;5063529;28;20039;-73
2021/05/25 12:35:13;;;;;;;3.50;1.20;;;20.20;48.00;;;;;;5050894;28;20048;-73
2021/05/25 12:37:41;;;;;;;6.00;1.33;;;20.00;47.50;;;;;;5049387;28;20063;-73
2021/05/25 12:40:09;;;;;;;5.90;1.60;;;19.90;48.50;;;;;;5055393;28;20020;-72
2021/05/25 12:42:38;;;;;;;3.35;1.27;;;19.70;49.00;;;;;;5056814;28;20104;-72
2021/05/25 12:45:13;;;;;;;3.85;1.50;;;19.70;49.80;;;;;;5056070;28;20123;-72
2021/05/25 12:48:09;;;;;;;6.20;1.55;;;19.50;49.90;;;;;;5059448;28;20044;-72
2021/05/25 12:50:38;;;;;;;7.35;1.90;;;19.20;50.80;;;;;;5053087;28;20052;-72
2021/05/25 12:53:18;;;;;;;10.63;1.90;;;19.00;51.20;;;;;;5054387;28;20032;-72
2021/05/25 12:55:53;;;;;;;4.20;1.35;;;18.80;51.90;;;;;;5067587;28;20378;-72
2021/05/25 12:58:44;;;;;;;3.25;1.40;;;18.60;52.00;;;;;;5049113;28;20466;-72
2021/05/25 13:01:33;;;;;;;3.47;1.60;;;18.40;52.40;;;;;;5055559;28;20115;-72
2021/05/25 13:04:01;;;;;;;5.32;1.83;;;18.40;51.50;;;;;;5065175;28;20024;-72